sensor_id;sensor_type;location;lat;lon;timestamp;P1;durP1;ratioP1;P2;durP2;ratioP2
13933;SDS011;7039;52.168;9.866;2023-06-10T00:00:02;9.90;;;5.80;;
13933;SDS011;7039;52.168;9.866;2023-06-10T00:02:30;9.93;;;4.90;;
13933;SDS011;7039;52.168;9.866;2023-06-10T00:04:57;8.80;;;4.90;;
13933;SDS011;7039;52.168;9.866;2023-06-10T00:07:23;10.83;;;5.03;;
13933;SDS011;7039;52.168;9.866;2023-06-10T00:09:51;6.97;;;5.20;;
13933;SDS011;7039;52.168;9.866;2023-06-10T00:12:18;6.63;;;4.83;;
13933;SDS011;7039;52.168;9.866;2023-06-10T00:14:45;8.90;;;4.77;;
13933;SDS011;7039;52.168;9.866;2023-06-10T00:17:13;6.87;;;4.70;;
13933;SDS011;7039;52.168;9.866;2023-06-10T00:19:40;7.67;;;4.63;;
13933;SDS011;7039;52.168;9.866;2023-06-10T00:22:07;7.47;;;5.07;;
13933;SDS011;7039;52.168;9.866;2023-06-10T00:24:33;8.07;;;5.43;;
13933;SDS011;7039;52.168;9.866;2023-06-10T00:27:01;9.63;;;5.40;;
13933;SDS011;7039;52.168;9.866;2023-06-10T00:29:28;8.10;;;4.83;;
13933;SDS011;7039;52.168;9.866;2023-06-10T00:31:55;6.97;;;4.77;;
13933;SDS011;7039;52.168;9.866;2023-06-10T00:34:22;7.43;;;5.20;;
13933;SDS011;7039;52.168;9.866;2023-06-10T00:36:49;9.83;;;4.97;;
13933;SDS011;7039;52.168;9.866;2023-06-10T00:39:15;9.37;;;5.73;;
13933;SDS011;7039;52.168;9.866;2023-06-10T00:41:42;5.80;;;4.83;;
13933;SDS011;7039;52.168;9.866;2023-06-10T00:44:10;9.40;;;5.30;;
13933;SDS011;7039;52.168;9.866;2023-06-10T00:46:36;7.30;;;4.63;;
13933;SDS011;7039;52.168;9.866;2023-06-10T00:49:03;10.87;;;5.00;;
13933;SDS011;7039;52.168;9.866;2023-06-10T00:51:30;7.70;;;5.23;;
13933;SDS011;7039;52.168;9.866;2023-06-10T00:53:56;6.37;;;4.83;;
13933;SDS011;7039;52.168;9.866;2023-06-10T00:56:23;9.33;;;4.80;;
13933;SDS011;7039;52.168;9.866;2023-06-10T00:58:50;6.33;;;4.67;;
13933;SDS011;7039;52.168;9.866;2023-06-10T01:01:19;7.53;;;4.87;;
13933;SDS011;7039;52.168;9.866;2023-06-10T01:03:46;12.70;;;4.80;;
13933;SDS011;7039;52.168;9.866;2023-06-10T01:06:14;8.53;;;4.27;;
13933;SDS011;7039;52.168;9.866;2023-06-10T01:08:51;10.90;;;4.67;;
13933;SDS011;7039;52.168;9.866;2023-06-10T01:11:25;8.60;;;4.87;;
13933;SDS011;7039;52.168;9.866;2023-06-10T01:13:55;8.80;;;3.90;;
13933;SDS011;7039;52.168;9.866;2023-06-10T01:16:25;7.93;;;4.60;;
13933;SDS011;7039;52.168;9.866;2023-06-10T01:18:53;8.53;;;4.50;;
13933;SDS011;7039;52.168;9.866;2023-06-10T01:21:21;7.53;;;4.10;;
13933;SDS011;7039;52.168;9.866;2023-06-10T01:23:49;9.73;;;4.60;;
13933;SDS011;7039;52.168;9.866;2023-06-10T01:26:17;8.10;;;4.30;;
13933;SDS011;7039;52.168;9.866;2023-06-10T01:28:47;6.50;;;4.17;;
13933;SDS011;7039;52.168;9.866;2023-06-10T01:31:20;11.50;;;4.23;;
13933;SDS011;7039;52.168;9.866;2023-06-10T01:33:59;7.27;;;4.23;;
13933;SDS011;7039;52.168;9.866;2023-06-10T01:36:28;7.17;;;4.27;;
13933;SDS011;7039;52.168;9.866;2023-06-10T01:38:56;8.47;;;4.37;;
13933;SDS011;7039;52.168;9.866;2023-06-10T01:41:25;10.23;;;4.63;;
13933;SDS011;7039;52.168;9.866;2023-06-10T01:43:53;6.67;;;4.03;;
13933;SDS011;7039;52.168;9.866;2023-06-10T01:46:20;10.53;;;4.67;;
13933;SDS011;7039;52.168;9.866;2023-06-10T01:48:47;9.43;;;4.67;;
13933;SDS011;7039;52.168;9.866;2023-06-10T01:51:14;9.77;;;4.40;;
13933;SDS011;7039;52.168;9.866;2023-06-10T01:53:42;10.70;;;4.53;;
13933;SDS011;7039;52.168;9.866;2023-06-10T01:56:08;10.47;;;4.87;;
13933;SDS011;7039;52.168;9.866;2023-06-10T01:58:35;6.17;;;4.57;;
13933;SDS011;7039;52.168;9.866;2023-06-10T02:01:01;6.20;;;4.30;;
13933;SDS011;7039;52.168;9.866;2023-06-10T02:03:28;8.90;;;4.80;;
13933;SDS011;7039;52.168;9.866;2023-06-10T02:05:54;12.07;;;4.83;;
13933;SDS011;7039;52.168;9.866;2023-06-10T02:08:21;6.20;;;4.47;;
13933;SDS011;7039;52.168;9.866;2023-06-10T02:10:49;13.97;;;5.10;;
13933;SDS011;7039;52.168;9.866;2023-06-10T02:13:15;8.97;;;4.53;;
13933;SDS011;7039;52.168;9.866;2023-06-10T02:15:42;13.63;;;4.80;;
13933;SDS011;7039;52.168;9.866;2023-06-10T02:18:08;9.80;;;4.60;;
13933;SDS011;7039;52.168;9.866;2023-06-10T02:20:36;11.47;;;4.90;;
13933;SDS011;7039;52.168;9.866;2023-06-10T02:23:03;15.17;;;4.80;;
13933;SDS011;7039;52.168;9.866;2023-06-10T02:25:30;10.40;;;4.63;;
13933;SDS011;7039;52.168;9.866;2023-06-10T02:27:58;6.83;;;4.70;;
13933;SDS011;7039;52.168;9.866;2023-06-10T02:30:24;8.53;;;4.97;;
13933;SDS011;7039;52.168;9.866;2023-06-10T02:32:51;9.50;;;4.50;;
13933;SDS011;7039;52.168;9.866;2023-06-10T02:35:17;9.13;;;4.50;;
13933;SDS011;7039;52.168;9.866;2023-06-10T02:37:44;9.30;;;4.67;;
13933;SDS011;7039;52.168;9.866;2023-06-10T02:40:11;7.03;;;4.50;;
13933;SDS011;7039;52.168;9.866;2023-06-10T02:42:37;6.90;;;5.30;;
13933;SDS011;7039;52.168;9.866;2023-06-10T02:45:06;9.77;;;5.17;;
13933;SDS011;7039;52.168;9.866;2023-06-10T02:47:33;9.57;;;5.37;;
13933;SDS011;7039;52.168;9.866;2023-06-10T02:50:00;13.87;;;4.83;;
13933;SDS011;7039;52.168;9.866;2023-06-10T02:52:26;8.43;;;4.93;;
13933;SDS011;7039;52.168;9.866;2023-06-10T02:54:53;9.50;;;4.57;;
13933;SDS011;7039;52.168;9.866;2023-06-10T02:57:20;11.47;;;5.37;;
13933;SDS011;7039;52.168;9.866;2023-06-10T02:59:46;10.27;;;5.30;;
13933;SDS011;7039;52.168;9.866;2023-06-10T03:02:14;10.43;;;5.10;;
13933;SDS011;7039;52.168;9.866;2023-06-10T03:04:41;12.10;;;5.77;;
13933;SDS011;7039;52.168;9.866;2023-06-10T03:07:08;9.97;;;4.80;;
13933;SDS011;7039;52.168;9.866;2023-06-10T03:09:36;11.53;;;5.00;;
13933;SDS011;7039;52.168;9.866;2023-06-10T03:12:03;10.50;;;5.00;;
13933;SDS011;7039;52.168;9.866;2023-06-10T03:14:30;9.90;;;5.00;;
13933;SDS011;7039;52.168;9.866;2023-06-10T03:16:56;10.30;;;5.53;;
13933;SDS011;7039;52.168;9.866;2023-06-10T03:19:24;10.27;;;4.90;;
13933;SDS011;7039;52.168;9.866;2023-06-10T03:21:57;7.10;;;4.90;;
13933;SDS011;7039;52.168;9.866;2023-06-10T03:24:33;12.57;;;5.37;;
13933;SDS011;7039;52.168;9.866;2023-06-10T03:27:00;10.87;;;5.53;;
13933;SDS011;7039;52.168;9.866;2023-06-10T03:29:27;10.37;;;5.53;;
13933;SDS011;7039;52.168;9.866;2023-06-10T03:31:53;9.87;;;5.53;;
13933;SDS011;7039;52.168;9.866;2023-06-10T03:34:20;14.33;;;5.83;;
13933;SDS011;7039;52.168;9.866;2023-06-10T03:36:48;9.70;;;5.77;;
13933;SDS011;7039;52.168;9.866;2023-06-10T03:39:14;9.17;;;5.57;;
13933;SDS011;7039;52.168;9.866;2023-06-10T03:41:41;12.97;;;5.70;;
13933;SDS011;7039;52.168;9.866;2023-06-10T03:44:08;7.40;;;4.77;;
13933;SDS011;7039;52.168;9.866;2023-06-10T03:46:34;11.13;;;5.13;;
13933;SDS011;7039;52.168;9.866;2023-06-10T03:49:01;9.80;;;5.37;;
13933;SDS011;7039;52.168;9.866;2023-06-10T03:51:28;10.07;;;5.90;;
13933;SDS011;7039;52.168;9.866;2023-06-10T03:53:56;9.07;;;5.63;;
13933;SDS011;7039;52.168;9.866;2023-06-10T03:56:23;9.60;;;5.10;;
13933;SDS011;7039;52.168;9.866;2023-06-10T03:58:50;9.13;;;5.30;;
13933;SDS011;7039;52.168;9.866;2023-06-10T04:01:17;10.23;;;5.50;;
13933;SDS011;7039;52.168;9.866;2023-06-10T04:03:46;13.97;;;6.07;;
13933;SDS011;7039;52.168;9.866;2023-06-10T04:06:14;8.43;;;5.70;;
13933;SDS011;7039;52.168;9.866;2023-06-10T04:08:41;11.37;;;6.07;;
13933;SDS011;7039;52.168;9.866;2023-06-10T04:11:09;12.40;;;6.00;;
13933;SDS011;7039;52.168;9.866;2023-06-10T04:13:35;11.37;;;5.23;;
13933;SDS011;7039;52.168;9.866;2023-06-10T04:16:02;12.50;;;5.83;;
13933;SDS011;7039;52.168;9.866;2023-06-10T04:18:29;11.83;;;5.40;;
13933;SDS011;7039;52.168;9.866;2023-06-10T04:20:56;10.53;;;5.70;;
13933;SDS011;7039;52.168;9.866;2023-06-10T04:23:22;12.03;;;5.90;;
13933;SDS011;7039;52.168;9.866;2023-06-10T04:25:49;11.77;;;6.60;;
13933;SDS011;7039;52.168;9.866;2023-06-10T04:28:17;9.83;;;6.60;;
13933;SDS011;7039;52.168;9.866;2023-06-10T04:30:44;9.97;;;6.00;;
13933;SDS011;7039;52.168;9.866;2023-06-10T04:33:11;11.90;;;6.03;;
13933;SDS011;7039;52.168;9.866;2023-06-10T04:35:37;10.40;;;5.80;;
13933;SDS011;7039;52.168;9.866;2023-06-10T04:38:04;10.77;;;5.47;;
13933;SDS011;7039;52.168;9.866;2023-06-10T04:40:30;13.97;;;6.00;;
13933;SDS011;7039;52.168;9.866;2023-06-10T04:42:56;9.30;;;6.50;;
13933;SDS011;7039;52.168;9.866;2023-06-10T04:45:24;10.40;;;6.23;;
13933;SDS011;7039;52.168;9.866;2023-06-10T04:47:51;11.93;;;6.37;;
13933;SDS011;7039;52.168;9.866;2023-06-10T04:50:20;14.33;;;6.63;;
13933;SDS011;7039;52.168;9.866;2023-06-10T04:52:47;11.80;;;6.60;;
13933;SDS011;7039;52.168;9.866;2023-06-10T04:55:13;9.07;;;5.43;;
13933;SDS011;7039;52.168;9.866;2023-06-10T04:57:40;11.10;;;5.80;;
13933;SDS011;7039;52.168;9.866;2023-06-10T05:00:06;11.80;;;5.70;;
13933;SDS011;7039;52.168;9.866;2023-06-10T05:02:35;9.27;;;5.43;;
13933;SDS011;7039;52.168;9.866;2023-06-10T05:05:01;9.20;;;5.97;;
13933;SDS011;7039;52.168;9.866;2023-06-10T05:07:28;11.43;;;6.30;;
13933;SDS011;7039;52.168;9.866;2023-06-10T05:09:54;14.40;;;7.03;;
13933;SDS011;7039;52.168;9.866;2023-06-10T05:12:21;12.67;;;6.33;;
13933;SDS011;7039;52.168;9.866;2023-06-10T05:14:47;10.97;;;7.00;;
13933;SDS011;7039;52.168;9.866;2023-06-10T05:17:14;11.03;;;6.40;;
13933;SDS011;7039;52.168;9.866;2023-06-10T05:19:41;13.23;;;6.43;;
13933;SDS011;7039;52.168;9.866;2023-06-10T05:22:08;10.33;;;6.07;;
13933;SDS011;7039;52.168;9.866;2023-06-10T05:24:35;11.10;;;6.07;;
13933;SDS011;7039;52.168;9.866;2023-06-10T05:27:01;9.77;;;5.50;;
13933;SDS011;7039;52.168;9.866;2023-06-10T05:29:28;9.60;;;5.87;;
13933;SDS011;7039;52.168;9.866;2023-06-10T05:31:55;9.03;;;5.37;;
13933;SDS011;7039;52.168;9.866;2023-06-10T05:34:22;10.80;;;5.33;;
13933;SDS011;7039;52.168;9.866;2023-06-10T05:36:50;14.17;;;6.10;;
13933;SDS011;7039;52.168;9.866;2023-06-10T05:39:17;11.77;;;6.70;;
13933;SDS011;7039;52.168;9.866;2023-06-10T05:41:43;13.57;;;6.30;;
13933;SDS011;7039;52.168;9.866;2023-06-10T05:44:10;11.03;;;6.27;;
13933;SDS011;7039;52.168;9.866;2023-06-10T05:46:36;13.70;;;6.13;;
13933;SDS011;7039;52.168;9.866;2023-06-10T05:49:03;10.43;;;6.63;;
13933;SDS011;7039;52.168;9.866;2023-06-10T05:51:29;11.60;;;6.40;;
13933;SDS011;7039;52.168;9.866;2023-06-10T05:53:57;13.20;;;6.70;;
13933;SDS011;7039;52.168;9.866;2023-06-10T05:56:23;11.40;;;6.03;;
13933;SDS011;7039;52.168;9.866;2023-06-10T05:58:50;12.40;;;5.87;;
13933;SDS011;7039;52.168;9.866;2023-06-10T06:01:17;12.27;;;6.43;;
13933;SDS011;7039;52.168;9.866;2023-06-10T06:03:44;10.97;;;6.33;;
13933;SDS011;7039;52.168;9.866;2023-06-10T06:06:10;9.53;;;5.93;;
13933;SDS011;7039;52.168;9.866;2023-06-10T06:08:37;10.67;;;6.47;;
13933;SDS011;7039;52.168;9.866;2023-06-10T06:11:04;8.37;;;6.40;;
13933;SDS011;7039;52.168;9.866;2023-06-10T06:13:31;10.23;;;6.23;;
13933;SDS011;7039;52.168;9.866;2023-06-10T06:15:57;9.93;;;6.50;;
13933;SDS011;7039;52.168;9.866;2023-06-10T06:18:24;14.97;;;6.70;;
13933;SDS011;7039;52.168;9.866;2023-06-10T06:20:50;10.10;;;6.20;;
13933;SDS011;7039;52.168;9.866;2023-06-10T06:23:17;12.00;;;6.03;;
13933;SDS011;7039;52.168;9.866;2023-06-10T06:25:44;9.40;;;5.87;;
13933;SDS011;7039;52.168;9.866;2023-06-10T06:28:12;10.20;;;6.70;;
13933;SDS011;7039;52.168;9.866;2023-06-10T06:30:41;10.30;;;5.57;;
13933;SDS011;7039;52.168;9.866;2023-06-10T06:33:07;15.00;;;7.27;;
13933;SDS011;7039;52.168;9.866;2023-06-10T06:35:34;12.70;;;8.50;;
13933;SDS011;7039;52.168;9.866;2023-06-10T06:38:03;15.43;;;10.83;;
13933;SDS011;7039;52.168;9.866;2023-06-10T06:40:29;12.73;;;8.60;;
13933;SDS011;7039;52.168;9.866;2023-06-10T06:42:56;9.43;;;7.20;;
13933;SDS011;7039;52.168;9.866;2023-06-10T06:45:24;14.33;;;8.17;;
13933;SDS011;7039;52.168;9.866;2023-06-10T06:47:51;11.00;;;7.30;;
13933;SDS011;7039;52.168;9.866;2023-06-10T06:50:17;12.23;;;7.47;;
13933;SDS011;7039;52.168;9.866;2023-06-10T06:52:44;10.83;;;7.33;;
13933;SDS011;7039;52.168;9.866;2023-06-10T06:55:10;11.17;;;6.63;;
13933;SDS011;7039;52.168;9.866;2023-06-10T06:57:37;13.00;;;6.90;;
13933;SDS011;7039;52.168;9.866;2023-06-10T07:00:04;10.00;;;7.07;;
13933;SDS011;7039;52.168;9.866;2023-06-10T07:02:35;12.33;;;5.67;;
13933;SDS011;7039;52.168;9.866;2023-06-10T07:05:01;12.13;;;7.43;;
13933;SDS011;7039;52.168;9.866;2023-06-10T07:07:28;13.37;;;7.30;;
13933;SDS011;7039;52.168;9.866;2023-06-10T07:09:55;11.77;;;7.00;;
13933;SDS011;7039;52.168;9.866;2023-06-10T07:12:21;12.33;;;6.70;;
13933;SDS011;7039;52.168;9.866;2023-06-10T07:14:49;13.73;;;7.43;;
13933;SDS011;7039;52.168;9.866;2023-06-10T07:17:15;13.10;;;7.70;;
13933;SDS011;7039;52.168;9.866;2023-06-10T07:19:44;15.30;;;7.80;;
13933;SDS011;7039;52.168;9.866;2023-06-10T07:22:11;12.90;;;7.60;;
13933;SDS011;7039;52.168;9.866;2023-06-10T07:24:37;10.40;;;6.87;;
13933;SDS011;7039;52.168;9.866;2023-06-10T07:27:04;13.55;;;7.95;;
13933;SDS011;7039;52.168;9.866;2023-06-10T07:29:32;12.53;;;7.30;;
13933;SDS011;7039;52.168;9.866;2023-06-10T07:31:58;13.83;;;7.90;;
13933;SDS011;7039;52.168;9.866;2023-06-10T07:34:25;11.17;;;7.90;;
13933;SDS011;7039;52.168;9.866;2023-06-10T07:36:52;12.07;;;7.40;;
13933;SDS011;7039;52.168;9.866;2023-06-10T07:39:19;10.47;;;8.07;;
13933;SDS011;7039;52.168;9.866;2023-06-10T07:41:45;13.57;;;6.63;;
13933;SDS011;7039;52.168;9.866;2023-06-10T07:44:14;10.50;;;7.07;;
13933;SDS011;7039;52.168;9.866;2023-06-10T07:46:40;13.30;;;6.53;;
13933;SDS011;7039;52.168;9.866;2023-06-10T07:49:07;10.07;;;6.27;;
13933;SDS011;7039;52.168;9.866;2023-06-10T07:51:33;10.07;;;6.30;;
13933;SDS011;7039;52.168;9.866;2023-06-10T07:54:02;9.97;;;7.07;;
13933;SDS011;7039;52.168;9.866;2023-06-10T07:56:29;13.53;;;7.23;;
13933;SDS011;7039;52.168;9.866;2023-06-10T07:58:55;12.73;;;6.80;;
13933;SDS011;7039;52.168;9.866;2023-06-10T08:01:22;9.97;;;6.70;;
13933;SDS011;7039;52.168;9.866;2023-06-10T08:03:49;11.73;;;7.20;;
13933;SDS011;7039;52.168;9.866;2023-06-10T08:06:16;11.77;;;6.87;;
13933;SDS011;7039;52.168;9.866;2023-06-10T08:08:42;14.20;;;7.57;;
13933;SDS011;7039;52.168;9.866;2023-06-10T08:11:10;10.97;;;6.97;;
13933;SDS011;7039;52.168;9.866;2023-06-10T08:13:37;12.90;;;7.37;;
13933;SDS011;7039;52.168;9.866;2023-06-10T08:16:04;18.73;;;6.60;;
13933;SDS011;7039;52.168;9.866;2023-06-10T08:18:31;11.67;;;7.00;;
13933;SDS011;7039;52.168;9.866;2023-06-10T08:20:57;12.43;;;6.50;;
13933;SDS011;7039;52.168;9.866;2023-06-10T08:23:24;11.00;;;7.10;;
13933;SDS011;7039;52.168;9.866;2023-06-10T08:25:50;13.33;;;8.20;;
13933;SDS011;7039;52.168;9.866;2023-06-10T08:28:18;10.80;;;6.93;;
13933;SDS011;7039;52.168;9.866;2023-06-10T08:30:45;10.23;;;6.63;;
13933;SDS011;7039;52.168;9.866;2023-06-10T08:33:11;10.30;;;7.03;;
13933;SDS011;7039;52.168;9.866;2023-06-10T08:35:38;10.17;;;7.00;;
13933;SDS011;7039;52.168;9.866;2023-06-10T08:38:04;11.60;;;7.07;;
13933;SDS011;7039;52.168;9.866;2023-06-10T08:40:32;8.77;;;7.30;;
13933;SDS011;7039;52.168;9.866;2023-06-10T08:43:00;15.30;;;6.57;;
13933;SDS011;7039;52.168;9.866;2023-06-10T08:45:34;14.67;;;7.63;;
13933;SDS011;7039;52.168;9.866;2023-06-10T08:48:03;14.43;;;6.90;;
13933;SDS011;7039;52.168;9.866;2023-06-10T08:50:31;10.63;;;7.13;;
13933;SDS011;7039;52.168;9.866;2023-06-10T08:53:00;10.27;;;7.30;;
13933;SDS011;7039;52.168;9.866;2023-06-10T08:55:30;15.33;;;7.50;;
13933;SDS011;7039;52.168;9.866;2023-06-10T08:57:59;13.07;;;7.80;;
13933;SDS011;7039;52.168;9.866;2023-06-10T09:00:26;12.73;;;7.03;;
13933;SDS011;7039;52.168;9.866;2023-06-10T09:02:55;10.30;;;6.83;;
13933;SDS011;7039;52.168;9.866;2023-06-10T09:05:21;12.50;;;6.87;;
13933;SDS011;7039;52.168;9.866;2023-06-10T09:07:48;12.10;;;7.13;;
13933;SDS011;7039;52.168;9.866;2023-06-10T09:10:15;11.40;;;7.17;;
13933;SDS011;7039;52.168;9.866;2023-06-10T09:12:42;10.73;;;7.57;;
13933;SDS011;7039;52.168;9.866;2023-06-10T09:15:09;10.70;;;6.57;;
13933;SDS011;7039;52.168;9.866;2023-06-10T09:17:37;12.90;;;7.20;;
13933;SDS011;7039;52.168;9.866;2023-06-10T09:20:07;10.60;;;6.63;;
13933;SDS011;7039;52.168;9.866;2023-06-10T09:22:34;10.60;;;7.50;;
13933;SDS011;7039;52.168;9.866;2023-06-10T09:25:02;10.17;;;7.20;;
13933;SDS011;7039;52.168;9.866;2023-06-10T09:27:30;12.73;;;7.30;;
13933;SDS011;7039;52.168;9.866;2023-06-10T09:29:57;13.53;;;7.30;;
13933;SDS011;7039;52.168;9.866;2023-06-10T09:32:24;12.83;;;8.30;;
13933;SDS011;7039;52.168;9.866;2023-06-10T09:34:51;12.47;;;7.47;;
13933;SDS011;7039;52.168;9.866;2023-06-10T09:37:20;13.67;;;6.80;;
13933;SDS011;7039;52.168;9.866;2023-06-10T09:40:00;12.47;;;7.60;;
13933;SDS011;7039;52.168;9.866;2023-06-10T09:42:30;12.73;;;7.60;;
13933;SDS011;7039;52.168;9.866;2023-06-10T09:44:59;16.63;;;7.57;;
13933;SDS011;7039;52.168;9.866;2023-06-10T09:47:25;11.67;;;7.83;;
13933;SDS011;7039;52.168;9.866;2023-06-10T09:49:51;11.30;;;6.87;;
13933;SDS011;7039;52.168;9.866;2023-06-10T09:52:22;11.37;;;7.10;;
13933;SDS011;7039;52.168;9.866;2023-06-10T09:54:49;17.23;;;7.83;;
13933;SDS011;7039;52.168;9.866;2023-06-10T09:57:17;11.85;;;7.65;;
13933;SDS011;7039;52.168;9.866;2023-06-10T09:59:44;13.03;;;7.00;;
13933;SDS011;7039;52.168;9.866;2023-06-10T10:02:13;10.87;;;6.77;;
13933;SDS011;7039;52.168;9.866;2023-06-10T10:04:40;11.70;;;7.77;;
13933;SDS011;7039;52.168;9.866;2023-06-10T10:07:06;15.67;;;7.47;;
13933;SDS011;7039;52.168;9.866;2023-06-10T10:09:35;12.87;;;7.00;;
13933;SDS011;7039;52.168;9.866;2023-06-10T10:12:01;12.90;;;7.13;;
13933;SDS011;7039;52.168;9.866;2023-06-10T10:14:30;11.73;;;6.93;;
13933;SDS011;7039;52.168;9.866;2023-06-10T10:17:01;9.70;;;7.27;;
13933;SDS011;7039;52.168;9.866;2023-06-10T10:19:31;11.68;;;7.55;;
13933;SDS011;7039;52.168;9.866;2023-06-10T10:22:04;10.95;;;7.15;;
13933;SDS011;7039;52.168;9.866;2023-06-10T10:24:36;10.38;;;6.50;;
13933;SDS011;7039;52.168;9.866;2023-06-10T10:27:07;11.18;;;6.82;;
13933;SDS011;7039;52.168;9.866;2023-06-10T10:29:40;13.32;;;6.57;;
13933;SDS011;7039;52.168;9.866;2023-06-10T10:32:08;9.73;;;6.80;;
13933;SDS011;7039;52.168;9.866;2023-06-10T10:34:38;13.63;;;7.57;;
13933;SDS011;7039;52.168;9.866;2023-06-10T10:37:17;8.68;;;6.55;;
13933;SDS011;7039;52.168;9.866;2023-06-10T10:39:45;9.93;;;6.60;;
13933;SDS011;7039;52.168;9.866;2023-06-10T10:42:11;11.73;;;7.78;;
13933;SDS011;7039;52.168;9.866;2023-06-10T10:44:39;13.00;;;7.30;;
13933;SDS011;7039;52.168;9.866;2023-06-10T10:47:07;14.43;;;7.40;;
13933;SDS011;7039;52.168;9.866;2023-06-10T10:49:35;10.20;;;7.18;;
13933;SDS011;7039;52.168;9.866;2023-06-10T10:52:03;13.50;;;6.35;;
13933;SDS011;7039;52.168;9.866;2023-06-10T10:54:31;12.45;;;7.30;;
13933;SDS011;7039;52.168;9.866;2023-06-10T10:57:13;14.10;;;7.63;;
13933;SDS011;7039;52.168;9.866;2023-06-10T10:59:44;11.68;;;7.57;;
13933;SDS011;7039;52.168;9.866;2023-06-10T11:02:15;10.15;;;7.03;;
13933;SDS011;7039;52.168;9.866;2023-06-10T11:04:44;9.35;;;7.40;;
13933;SDS011;7039;52.168;9.866;2023-06-10T11:07:12;7.40;;;6.57;;
13933;SDS011;7039;52.168;9.866;2023-06-10T11:12:28;9.95;;;6.90;;
13933;SDS011;7039;52.168;9.866;2023-06-10T11:15:07;11.10;;;6.88;;
13933;SDS011;7039;52.168;9.866;2023-06-10T11:17:34;7.63;;;6.93;;
13933;SDS011;7039;52.168;9.866;2023-06-10T11:20:00;8.27;;;7.38;;
13933;SDS011;7039;52.168;9.866;2023-06-10T11:22:27;10.57;;;6.63;;
13933;SDS011;7039;52.168;9.866;2023-06-10T11:24:53;7.72;;;6.88;;
13933;SDS011;7039;52.168;9.866;2023-06-10T11:27:21;9.43;;;7.10;;
13933;SDS011;7039;52.168;9.866;2023-06-10T11:29:57;9.52;;;6.75;;
13933;SDS011;7039;52.168;9.866;2023-06-10T11:32:25;8.27;;;6.93;;
13933;SDS011;7039;52.168;9.866;2023-06-10T11:34:56;10.55;;;6.93;;
13933;SDS011;7039;52.168;9.866;2023-06-10T11:37:22;8.13;;;6.70;;
13933;SDS011;7039;52.168;9.866;2023-06-10T11:39:51;8.02;;;7.03;;
13933;SDS011;7039;52.168;9.866;2023-06-10T11:42:18;12.02;;;7.95;;
13933;SDS011;7039;52.168;9.866;2023-06-10T11:44:47;9.80;;;7.07;;
13933;SDS011;7039;52.168;9.866;2023-06-10T11:47:16;9.18;;;6.93;;
13933;SDS011;7039;52.168;9.866;2023-06-10T11:49:43;9.13;;;7.18;;
13933;SDS011;7039;52.168;9.866;2023-06-10T11:52:10;7.22;;;6.47;;
13933;SDS011;7039;52.168;9.866;2023-06-10T11:54:36;12.43;;;7.93;;
13933;SDS011;7039;52.168;9.866;2023-06-10T11:57:03;10.95;;;7.30;;
13933;SDS011;7039;52.168;9.866;2023-06-10T11:59:30;11.18;;;6.70;;
13933;SDS011;7039;52.168;9.866;2023-06-10T12:01:57;10.40;;;7.70;;
13933;SDS011;7039;52.168;9.866;2023-06-10T12:04:26;10.68;;;7.55;;
13933;SDS011;7039;52.168;9.866;2023-06-10T12:06:52;11.25;;;7.32;;
13933;SDS011;7039;52.168;9.866;2023-06-10T12:09:20;10.52;;;7.53;;
13933;SDS011;7039;52.168;9.866;2023-06-10T12:11:49;11.10;;;7.68;;
13933;SDS011;7039;52.168;9.866;2023-06-10T12:17:23;9.05;;;7.57;;
13933;SDS011;7039;52.168;9.866;2023-06-10T12:19:51;11.10;;;7.47;;
13933;SDS011;7039;52.168;9.866;2023-06-10T12:22:18;8.40;;;7.10;;
13933;SDS011;7039;52.168;9.866;2023-06-10T12:24:45;10.95;;;7.82;;
13933;SDS011;7039;52.168;9.866;2023-06-10T12:27:24;8.23;;;7.35;;
13933;SDS011;7039;52.168;9.866;2023-06-10T12:29:51;8.98;;;7.57;;
13933;SDS011;7039;52.168;9.866;2023-06-10T12:32:19;12.63;;;8.13;;
13933;SDS011;7039;52.168;9.866;2023-06-10T12:34:47;8.40;;;7.45;;
13933;SDS011;7039;52.168;9.866;2023-06-10T12:37:15;7.75;;;7.05;;
13933;SDS011;7039;52.168;9.866;2023-06-10T12:39:42;11.55;;;7.80;;
13933;SDS011;7039;52.168;9.866;2023-06-10T12:42:18;7.43;;;6.70;;
13933;SDS011;7039;52.168;9.866;2023-06-10T12:44:52;9.65;;;7.53;;
13933;SDS011;7039;52.168;9.866;2023-06-10T12:47:19;8.30;;;7.20;;
13933;SDS011;7039;52.168;9.866;2023-06-10T12:49:46;9.38;;;7.40;;
13933;SDS011;7039;52.168;9.866;2023-06-10T12:52:12;14.40;;;6.93;;
13933;SDS011;7039;52.168;9.866;2023-06-10T12:54:40;8.82;;;7.53;;
13933;SDS011;7039;52.168;9.866;2023-06-10T12:57:07;11.85;;;6.85;;
13933;SDS011;7039;52.168;9.866;2023-06-10T12:59:35;13.77;;;7.05;;
13933;SDS011;7039;52.168;9.866;2023-06-10T13:02:02;10.32;;;7.15;;
13933;SDS011;7039;52.168;9.866;2023-06-10T13:04:28;10.00;;;7.93;;
13933;SDS011;7039;52.168;9.866;2023-06-10T13:06:55;10.68;;;8.10;;
13933;SDS011;7039;52.168;9.866;2023-06-10T13:09:21;10.75;;;8.23;;
13933;SDS011;7039;52.168;9.866;2023-06-10T13:11:49;8.60;;;7.18;;
13933;SDS011;7039;52.168;9.866;2023-06-10T13:14:17;11.07;;;7.70;;
13933;SDS011;7039;52.168;9.866;2023-06-10T13:16:44;8.73;;;7.80;;
13933;SDS011;7039;52.168;9.866;2023-06-10T13:19:11;8.85;;;7.97;;
13933;SDS011;7039;52.168;9.866;2023-06-10T13:21:37;8.88;;;7.70;;
13933;SDS011;7039;52.168;9.866;2023-06-10T13:24:04;16.52;;;8.20;;
13933;SDS011;7039;52.168;9.866;2023-06-10T13:26:31;13.52;;;7.57;;
13933;SDS011;7039;52.168;9.866;2023-06-10T13:28:59;8.88;;;7.40;;
13933;SDS011;7039;52.168;9.866;2023-06-10T13:31:25;8.68;;;7.82;;
13933;SDS011;7039;52.168;9.866;2023-06-10T13:33:52;7.93;;;7.13;;
13933;SDS011;7039;52.168;9.866;2023-06-10T13:36:18;17.27;;;7.57;;
13933;SDS011;7039;52.168;9.866;2023-06-10T13:38:45;12.80;;;7.72;;
13933;SDS011;7039;52.168;9.866;2023-06-10T13:41:12;9.43;;;7.05;;
13933;SDS011;7039;52.168;9.866;2023-06-10T13:43:41;9.35;;;7.60;;
13933;SDS011;7039;52.168;9.866;2023-06-10T13:46:09;13.30;;;7.65;;
13933;SDS011;7039;52.168;9.866;2023-06-10T13:48:36;7.82;;;7.13;;
13933;SDS011;7039;52.168;9.866;2023-06-10T13:51:02;8.02;;;7.25;;
13933;SDS011;7039;52.168;9.866;2023-06-10T13:53:29;7.82;;;7.10;;
13933;SDS011;7039;52.168;9.866;2023-06-10T13:55:55;7.93;;;7.13;;
13933;SDS011;7039;52.168;9.866;2023-06-10T13:58:22;10.02;;;7.50;;
13933;SDS011;7039;52.168;9.866;2023-06-10T14:00:48;7.22;;;6.53;;
13933;SDS011;7039;52.168;9.866;2023-06-10T14:03:16;7.32;;;6.60;;
13933;SDS011;7039;52.168;9.866;2023-06-10T14:05:43;8.00;;;7.15;;
13933;SDS011;7039;52.168;9.866;2023-06-10T14:08:09;8.50;;;6.68;;
13933;SDS011;7039;52.168;9.866;2023-06-10T14:10:35;7.65;;;6.82;;
13933;SDS011;7039;52.168;9.866;2023-06-10T14:13:02;9.10;;;6.63;;
13933;SDS011;7039;52.168;9.866;2023-06-10T14:15:28;8.43;;;7.25;;
13933;SDS011;7039;52.168;9.866;2023-06-10T14:17:55;8.20;;;7.15;;
13933;SDS011;7039;52.168;9.866;2023-06-10T14:20:23;6.95;;;6.35;;
13933;SDS011;7039;52.168;9.866;2023-06-10T14:22:50;7.35;;;6.65;;
13933;SDS011;7039;52.168;9.866;2023-06-10T14:25:17;7.78;;;6.97;;
13933;SDS011;7039;52.168;9.866;2023-06-10T14:27:43;8.13;;;6.75;;
13933;SDS011;7039;52.168;9.866;2023-06-10T14:30:12;12.23;;;7.05;;
13933;SDS011;7039;52.168;9.866;2023-06-10T14:32:38;7.65;;;6.95;;
13933;SDS011;7039;52.168;9.866;2023-06-10T14:35:05;7.97;;;6.50;;
13933;SDS011;7039;52.168;9.866;2023-06-10T14:37:33;8.35;;;6.93;;
13933;SDS011;7039;52.168;9.866;2023-06-10T14:40:00;10.77;;;7.00;;
13933;SDS011;7039;52.168;9.866;2023-06-10T14:42:26;7.32;;;6.72;;
13933;SDS011;7039;52.168;9.866;2023-06-10T14:44:53;12.93;;;7.15;;
13933;SDS011;7039;52.168;9.866;2023-06-10T14:47:19;9.32;;;6.45;;
13933;SDS011;7039;52.168;9.866;2023-06-10T14:49:45;9.07;;;6.38;;
13933;SDS011;7039;52.168;9.866;2023-06-10T14:52:12;8.60;;;6.63;;
13933;SDS011;7039;52.168;9.866;2023-06-10T14:54:40;7.43;;;6.72;;
13933;SDS011;7039;52.168;9.866;2023-06-10T14:57:06;6.90;;;6.30;;
13933;SDS011;7039;52.168;9.866;2023-06-10T14:59:33;7.78;;;6.63;;